Jester, Texas
Current Conditions -  °F | °C
As of 8:53 PM on Tuesday 25 Nov 2014 (Local Time) from KCRS Reporting Station
Clear Clear  
Wind Chill: 47°   Ceiling: Unl
Heat Index: 49°   Visibility: 10mi
Dew Point: 27°   Wind: 6mph
Humidity: 43%   Direction: 200°SSW
Pressure: 30.18"   Gusts: NA
Location:  31.9458°N, 96.5713°W
Report Text: KCRS 260253Z AUTO 20005KT 10SM CLR 09/M03 A3018 RMK AO2 SLP219 T00941028 58002
Loading
Personal Weather Stations






























Interactive Weather Map New forecast layout! Learn more

10-Day Weather Forecast

Advertisements
Track Severe Weather on mobile